createdAt,value
2023-04-30T00:06:06.778Z,8.98
2023-04-30T00:08:34.829Z,8.20
2023-04-30T00:11:04.722Z,9.02
2023-04-30T00:13:34.872Z,9.10
2023-04-30T00:16:02.861Z,8.77
2023-04-30T00:18:31.015Z,8.13
2023-04-30T00:20:58.615Z,8.52
2023-04-30T00:23:26.382Z,8.63
2023-04-30T00:25:53.840Z,8.45
2023-04-30T00:28:22.128Z,8.27
2023-04-30T00:30:50.843Z,8.95
2023-04-30T00:33:19.456Z,9.20
2023-04-30T00:35:49.871Z,8.45
2023-04-30T00:38:19.652Z,8.57
2023-04-30T00:40:53.739Z,8.45
2023-04-30T00:43:21.348Z,8.13
2023-04-30T00:45:50.975Z,8.25
2023-04-30T00:48:19.718Z,8.32
2023-04-30T00:50:51.449Z,8.82
2023-04-30T00:53:21.184Z,9.40
2023-04-30T00:55:51.476Z,9.10
2023-04-30T00:58:19.323Z,9.13
2023-04-30T01:00:49.146Z,8.75
2023-04-30T01:03:19.000Z,9.65
2023-04-30T01:05:48.233Z,10.00
2023-04-30T01:08:15.985Z,9.55
2023-04-30T01:10:55.179Z,9.73
2023-04-30T01:13:36.388Z,9.65
2023-04-30T01:16:20.211Z,9.45
2023-04-30T01:18:52.718Z,8.75
2023-04-30T01:21:20.879Z,9.15
2023-04-30T01:23:50.360Z,9.60
2023-04-30T01:26:28.888Z,9.52
2023-04-30T01:28:58.170Z,10.02
2023-04-30T01:31:25.876Z,9.77
2023-04-30T01:33:55.735Z,9.73
2023-04-30T01:36:32.266Z,10.00
2023-04-30T01:39:10.391Z,7.50
2023-04-30T01:41:56.343Z,9.15
2023-04-30T01:44:24.022Z,8.70
2023-04-30T01:47:14.897Z,8.32
2023-04-30T01:50:01.380Z,9.15
2023-04-30T01:52:29.442Z,8.38
2023-04-30T01:55:01.507Z,8.77
2023-04-30T01:57:31.901Z,10.15
2023-04-30T01:59:59.740Z,9.43
2023-04-30T02:02:28.005Z,11.05
2023-04-30T02:04:56.302Z,10.38
2023-04-30T02:07:38.450Z,11.50
2023-04-30T02:10:07.502Z,11.30
2023-04-30T02:12:35.468Z,12.38
2023-04-30T02:15:03.783Z,8.70
2023-04-30T02:17:35.212Z,8.55
2023-04-30T02:20:08.481Z,8.77
2023-04-30T02:22:36.662Z,9.00
2023-04-30T02:25:05.423Z,8.68
2023-04-30T02:27:33.743Z,9.75
2023-04-30T02:30:05.237Z,9.50
2023-04-30T02:32:36.583Z,8.88
2023-04-30T02:35:04.186Z,8.57
2023-04-30T02:37:32.994Z,9.02
2023-04-30T02:40:00.773Z,9.10
2023-04-30T02:42:28.664Z,9.88
2023-04-30T02:44:56.237Z,10.77
2023-04-30T02:47:23.849Z,12.00
2023-04-30T02:49:51.710Z,12.00
2023-04-30T02:52:19.647Z,12.15
2023-04-30T02:54:49.026Z,11.63
2023-04-30T02:57:18.518Z,13.07
2023-04-30T02:59:47.366Z,13.13
2023-04-30T03:02:20.801Z,12.98
2023-04-30T03:04:56.700Z,13.57
2023-04-30T03:07:27.118Z,13.40
2023-04-30T03:09:54.876Z,14.00
2023-04-30T03:12:22.736Z,13.30
2023-04-30T03:14:50.350Z,14.48
2023-04-30T03:17:21.284Z,14.40
2023-04-30T03:19:50.607Z,14.25
2023-04-30T03:22:24.321Z,15.07
2023-04-30T03:24:52.128Z,13.95
2023-04-30T03:27:19.964Z,13.52
2023-04-30T03:29:49.158Z,13.73
2023-04-30T03:32:17.245Z,13.80
2023-04-30T03:34:44.828Z,12.55
2023-04-30T03:37:12.512Z,13.20
2023-04-30T03:39:49.879Z,12.98
2023-04-30T03:44:48.990Z,11.10
2023-04-30T03:47:19.513Z,12.10
2023-04-30T03:49:49.573Z,12.27
2023-04-30T03:52:17.948Z,11.63
2023-04-30T03:54:45.649Z,11.13
2023-04-30T03:57:14.042Z,12.23
2023-04-30T03:59:42.239Z,11.55
2023-04-30T04:02:10.419Z,10.73
2023-04-30T04:04:38.132Z,11.93
2023-04-30T04:07:08.480Z,11.55
2023-04-30T04:09:36.935Z,11.68
2023-04-30T04:12:08.651Z,11.60
2023-04-30T04:14:37.615Z,12.07
2023-04-30T04:17:08.275Z,11.75
2023-04-30T04:19:35.920Z,11.55
2023-04-30T04:22:04.714Z,10.63
2023-04-30T04:24:32.394Z,11.27
2023-04-30T04:27:04.335Z,11.73
2023-04-30T04:29:33.647Z,11.23
2023-04-30T04:32:02.993Z,11.75
2023-04-30T04:34:31.752Z,12.10
2023-04-30T04:36:59.680Z,11.63
2023-04-30T04:39:27.932Z,11.27
2023-04-30T04:41:55.866Z,9.93
2023-04-30T04:44:23.630Z,11.75
2023-04-30T04:46:54.249Z,12.13
2023-04-30T04:49:22.433Z,12.07
2023-04-30T04:51:52.492Z,12.48
2023-04-30T04:54:20.244Z,12.50
2023-04-30T04:56:49.958Z,11.80
2023-04-30T04:59:19.398Z,12.65
2023-04-30T05:01:48.673Z,12.80
2023-04-30T05:04:17.985Z,12.50
2023-04-30T05:06:47.752Z,12.73
2023-04-30T05:09:17.596Z,13.93
2023-04-30T05:11:48.751Z,12.82
2023-04-30T05:14:17.203Z,12.65
2023-04-30T05:16:45.958Z,12.48
2023-04-30T05:19:22.494Z,13.40
2023-04-30T05:21:51.417Z,12.30
2023-04-30T05:24:19.622Z,13.10
2023-04-30T05:26:50.502Z,13.48
2023-04-30T05:29:20.091Z,12.98
2023-04-30T05:31:53.266Z,13.10
2023-04-30T05:34:21.529Z,12.80
2023-04-30T05:36:49.355Z,13.18
2023-04-30T05:39:17.961Z,12.15
2023-04-30T05:41:45.447Z,13.07
2023-04-30T05:44:13.117Z,13.18
2023-04-30T05:46:41.017Z,13.35
2023-04-30T05:49:08.456Z,13.65
2023-04-30T05:51:36.275Z,12.90
2023-04-30T05:54:03.950Z,13.15
2023-04-30T05:56:31.509Z,12.90
2023-04-30T05:58:59.100Z,12.98
2023-04-30T06:01:29.005Z,12.77
2023-04-30T06:03:56.844Z,12.60
2023-04-30T06:06:24.878Z,11.95
2023-04-30T06:08:52.441Z,12.05
2023-04-30T06:11:20.308Z,10.90
2023-04-30T06:13:51.054Z,11.27
2023-04-30T06:16:19.873Z,10.60
2023-04-30T06:18:48.294Z,10.57
2023-04-30T06:21:16.074Z,9.60
2023-04-30T06:23:48.088Z,9.45
2023-04-30T06:26:15.650Z,10.50
2023-04-30T06:28:43.369Z,8.48
2023-04-30T06:31:11.729Z,9.02
2023-04-30T06:33:39.607Z,8.15
2023-04-30T06:36:08.106Z,8.38
2023-04-30T06:38:35.788Z,7.82
2023-04-30T06:41:03.517Z,7.80
2023-04-30T06:43:31.273Z,7.47
2023-04-30T06:45:59.042Z,7.78
2023-04-30T06:48:27.983Z,7.63
2023-04-30T06:50:55.854Z,7.88
2023-04-30T06:53:23.546Z,7.90
2023-04-30T06:55:51.678Z,7.60
2023-04-30T06:58:20.477Z,8.32
2023-04-30T07:00:54.946Z,8.45
2023-04-30T07:03:23.352Z,8.23
2023-04-30T07:05:51.747Z,7.78
2023-04-30T07:08:19.589Z,8.43
2023-04-30T07:10:49.888Z,8.93
2023-04-30T07:15:51.886Z,8.73
2023-04-30T07:18:19.995Z,8.18
2023-04-30T07:20:48.930Z,8.40
2023-04-30T07:23:17.341Z,8.65
2023-04-30T07:25:45.002Z,8.38
2023-04-30T07:28:12.642Z,8.43
2023-04-30T07:30:42.903Z,8.73
2023-04-30T07:33:10.583Z,8.00
2023-04-30T07:35:59.009Z,8.07
2023-04-30T07:38:26.966Z,8.43
2023-04-30T07:40:54.726Z,7.65
2023-04-30T07:43:22.275Z,7.88
2023-04-30T07:45:50.150Z,8.43
2023-04-30T07:48:18.615Z,7.60
2023-04-30T07:50:50.741Z,7.93
2023-04-30T07:53:20.500Z,7.20
2023-04-30T07:55:49.146Z,8.13
2023-04-30T07:58:45.661Z,8.10
2023-04-30T08:01:09.510Z,7.60
2023-04-30T08:03:37.653Z,7.43
2023-04-30T08:06:07.230Z,6.50
2023-04-30T08:08:35.043Z,6.57
2023-04-30T08:11:02.936Z,7.15
2023-04-30T08:13:30.970Z,6.90
2023-04-30T08:15:58.909Z,6.55
2023-04-30T08:18:26.982Z,7.00
2023-04-30T08:20:54.547Z,6.40
2023-04-30T08:23:22.099Z,6.68
2023-04-30T08:25:49.798Z,6.15
2023-04-30T08:28:18.384Z,6.13
2023-04-30T08:30:45.909Z,6.07
2023-04-30T08:33:14.792Z,5.82
2023-04-30T08:35:42.551Z,5.38
2023-04-30T08:38:10.410Z,6.10
2023-04-30T08:40:50.919Z,5.40
2023-04-30T08:43:20.568Z,5.90
2023-04-30T08:45:52.325Z,6.80
2023-04-30T08:48:20.487Z,5.82
2023-04-30T08:50:49.518Z,6.40
2023-04-30T08:53:18.867Z,5.30
2023-04-30T08:55:47.409Z,5.30
2023-04-30T08:58:15.694Z,5.88
2023-04-30T09:00:43.206Z,6.10
2023-04-30T09:03:10.950Z,6.28
2023-04-30T09:05:38.840Z,5.47
2023-04-30T09:08:08.897Z,5.70
2023-04-30T09:10:39.910Z,6.47
2023-04-30T09:13:12.113Z,5.68
2023-04-30T09:15:45.832Z,4.93
2023-04-30T09:18:19.411Z,5.07
2023-04-30T09:20:57.822Z,4.65
2023-04-30T09:23:25.925Z,4.80
2023-04-30T09:25:53.892Z,4.82
2023-04-30T09:28:29.825Z,4.15
2023-04-30T09:30:58.880Z,4.38
2023-04-30T09:33:26.659Z,5.20
2023-04-30T09:35:55.078Z,4.35
2023-04-30T09:38:30.577Z,5.25
2023-04-30T09:41:02.102Z,4.70
2023-04-30T09:43:30.229Z,4.97
2023-04-30T09:45:59.276Z,5.60
2023-04-30T09:48:28.712Z,4.75
2023-04-30T09:50:57.033Z,4.87
2023-04-30T09:53:24.478Z,5.18
2023-04-30T09:55:52.641Z,5.22
2023-04-30T09:58:20.750Z,4.88
2023-04-30T10:00:49.670Z,4.53
2023-04-30T10:03:18.711Z,4.25
2023-04-30T10:05:48.848Z,4.45
2023-04-30T10:08:22.918Z,3.50
2023-04-30T10:10:54.977Z,3.90
2023-04-30T10:13:22.762Z,3.75
2023-04-30T10:15:53.242Z,4.00
2023-04-30T10:18:35.157Z,4.07
2023-04-30T10:21:12.758Z,4.60
2023-04-30T10:23:43.713Z,4.00
2023-04-30T10:26:18.742Z,3.97
2023-04-30T10:28:47.212Z,3.00
2023-04-30T10:31:15.338Z,2.80
2023-04-30T10:33:50.243Z,3.97
2023-04-30T10:36:32.382Z,3.50
2023-04-30T10:39:00.512Z,4.45
2023-04-30T10:41:29.549Z,3.78
2023-04-30T10:44:02.568Z,3.72
2023-04-30T10:46:30.579Z,4.53
2023-04-30T10:49:01.487Z,3.30
2023-04-30T10:51:48.899Z,3.88
2023-04-30T10:54:20.154Z,3.70
2023-04-30T10:56:50.918Z,3.25
2023-04-30T10:59:20.147Z,3.15
2023-04-30T11:02:01.690Z,3.50
2023-04-30T11:04:30.228Z,3.42
2023-04-30T11:07:10.824Z,2.67
2023-04-30T11:09:42.744Z,2.75
2023-04-30T11:12:20.285Z,2.70
2023-04-30T11:14:48.867Z,2.47
2023-04-30T11:17:23.660Z,2.33
2023-04-30T11:19:52.597Z,2.85
2023-04-30T11:22:22.589Z,2.15
2023-04-30T11:24:54.157Z,2.70
2023-04-30T11:27:25.904Z,2.70
2023-04-30T11:29:54.419Z,3.13
2023-04-30T11:32:23.402Z,3.30
2023-04-30T11:34:52.164Z,3.50
2023-04-30T11:37:22.031Z,3.03
2023-04-30T11:39:51.450Z,3.65
2023-04-30T11:42:21.689Z,3.47
2023-04-30T11:47:18.422Z,3.47
2023-04-30T11:49:47.448Z,3.42
2023-04-30T11:52:15.129Z,3.25
2023-04-30T11:54:42.848Z,2.80
2023-04-30T11:57:10.564Z,3.45
2023-04-30T11:59:44.589Z,3.70
2023-04-30T12:02:15.473Z,3.45
2023-04-30T12:04:48.825Z,3.60
2023-04-30T12:07:18.239Z,4.20
2023-04-30T12:09:53.237Z,3.10
2023-04-30T12:12:27.975Z,3.70
2023-04-30T12:14:56.500Z,3.10
2023-04-30T12:17:35.069Z,3.70
2023-04-30T12:20:02.992Z,4.05
2023-04-30T12:22:30.870Z,4.30
2023-04-30T12:25:00.765Z,3.92
2023-04-30T12:27:29.796Z,3.42
2023-04-30T12:29:58.044Z,3.80
2023-04-30T12:32:26.309Z,3.53
2023-04-30T12:34:59.400Z,3.78
2023-04-30T12:37:27.776Z,3.88
2023-04-30T12:39:56.627Z,3.63
2023-04-30T12:42:26.205Z,3.45
2023-04-30T12:44:53.782Z,3.33
2023-04-30T12:47:21.435Z,2.72
2023-04-30T12:49:50.245Z,3.20
2023-04-30T12:52:18.761Z,2.95
2023-04-30T12:54:49.885Z,2.67
2023-04-30T12:57:18.500Z,2.70
2023-04-30T12:59:56.074Z,2.40
2023-04-30T13:02:25.919Z,2.95
2023-04-30T13:04:53.765Z,2.92
2023-04-30T13:07:21.692Z,2.75
2023-04-30T13:09:50.535Z,3.53
2023-04-30T13:12:19.511Z,2.63
2023-04-30T13:14:49.981Z,2.67
2023-04-30T13:17:18.576Z,2.30
2023-04-30T13:19:47.050Z,2.50
2023-04-30T13:22:14.766Z,2.35
2023-04-30T13:24:42.463Z,2.65
2023-04-30T13:27:10.156Z,2.72
2023-04-30T13:29:37.664Z,1.42
2023-04-30T13:32:07.138Z,1.70
2023-04-30T13:34:34.616Z,1.83
2023-04-30T13:37:02.619Z,2.10
2023-04-30T13:39:33.029Z,2.05
2023-04-30T13:42:01.480Z,1.90
2023-04-30T13:44:29.094Z,1.73
2023-04-30T13:46:56.868Z,1.80
2023-04-30T13:49:24.757Z,1.35
2023-04-30T13:51:52.352Z,1.45
2023-04-30T13:54:23.046Z,1.50
2023-04-30T13:56:50.594Z,1.42
2023-04-30T13:59:20.292Z,1.92
2023-04-30T14:01:48.717Z,1.40
2023-04-30T14:04:18.818Z,0.95
2023-04-30T14:06:49.164Z,1.27
2023-04-30T14:11:49.707Z,0.80
2023-04-30T14:14:18.770Z,0.70
2023-04-30T14:16:48.959Z,1.00
2023-04-30T14:19:18.493Z,0.88
2023-04-30T14:21:48.023Z,0.80
2023-04-30T14:24:17.822Z,0.70
2023-04-30T14:26:46.065Z,1.00
2023-04-30T14:29:21.558Z,1.27
2023-04-30T14:31:49.930Z,1.13
2023-04-30T14:34:20.384Z,1.17
2023-04-30T14:36:48.902Z,0.90
2023-04-30T14:39:17.278Z,0.85
2023-04-30T14:41:45.461Z,0.88
2023-04-30T14:44:13.571Z,0.73
2023-04-30T14:46:41.074Z,0.50
2023-04-30T14:49:08.730Z,0.70
2023-04-30T14:51:36.575Z,0.40
2023-04-30T14:54:04.102Z,0.90
2023-04-30T14:56:32.554Z,1.20
2023-04-30T14:59:00.697Z,1.00
2023-04-30T15:01:31.378Z,0.73
2023-04-30T15:04:02.315Z,0.73
2023-04-30T15:06:30.188Z,0.63
2023-04-30T15:08:58.180Z,0.88
2023-04-30T15:11:26.564Z,1.02
2023-04-30T15:13:56.897Z,1.02
2023-04-30T15:16:25.854Z,1.02
2023-04-30T15:18:54.556Z,1.15
2023-04-30T15:21:22.231Z,1.00
2023-04-30T15:23:51.066Z,1.10
2023-04-30T15:26:22.271Z,1.17
2023-04-30T15:28:51.877Z,0.77
2023-04-30T15:31:19.767Z,1.08
2023-04-30T15:33:49.422Z,0.90
2023-04-30T15:36:19.232Z,0.83
2023-04-30T15:38:47.984Z,1.00
2023-04-30T15:41:19.533Z,0.80
2023-04-30T15:43:50.139Z,0.80
2023-04-30T15:46:19.192Z,0.95
2023-04-30T15:48:48.109Z,0.82
2023-04-30T15:51:17.559Z,1.00
2023-04-30T15:53:49.828Z,1.20
2023-04-30T15:56:20.440Z,0.70
2023-04-30T15:58:48.550Z,0.65
2023-04-30T16:01:17.641Z,0.73
2023-04-30T16:03:45.752Z,0.88
2023-04-30T16:06:14.438Z,0.63
2023-04-30T16:08:42.897Z,0.43
2023-04-30T16:11:10.863Z,0.55
2023-04-30T16:13:38.310Z,0.70
2023-04-30T16:16:08.584Z,0.60
2023-04-30T16:21:05.599Z,0.60
2023-04-30T16:23:33.276Z,0.70
2023-04-30T16:26:01.264Z,0.60
2023-04-30T16:28:32.113Z,0.80
2023-04-30T16:33:28.853Z,0.80
2023-04-30T16:35:57.082Z,0.80
2023-04-30T16:38:25.341Z,0.70
2023-04-30T16:40:54.145Z,0.95
2023-04-30T16:43:23.127Z,0.93
2023-04-30T16:45:51.112Z,0.73
2023-04-30T16:48:19.859Z,0.50
2023-04-30T16:50:52.181Z,0.60
2023-04-30T16:53:21.907Z,0.60
2023-04-30T16:55:52.218Z,0.50
2023-04-30T16:58:20.538Z,0.50
2023-04-30T17:00:56.514Z,0.52
2023-04-30T17:03:24.921Z,0.70
2023-04-30T17:05:54.549Z,0.60
2023-04-30T17:08:22.349Z,0.60
2023-04-30T17:10:50.003Z,0.50
2023-04-30T17:13:20.528Z,0.50
2023-04-30T17:15:51.974Z,0.50
2023-04-30T17:18:19.926Z,0.57
2023-04-30T17:20:49.839Z,0.60
2023-04-30T17:23:19.207Z,0.70
2023-04-30T17:25:50.256Z,0.65
2023-04-30T17:28:18.874Z,0.60
2023-04-30T17:30:47.962Z,0.60
2023-04-30T17:33:15.722Z,0.60
2023-04-30T17:35:51.388Z,1.00
2023-04-30T17:38:20.603Z,0.77
2023-04-30T17:40:49.554Z,0.63
2023-04-30T17:43:17.201Z,0.68
2023-04-30T17:45:45.722Z,0.60
2023-04-30T17:48:13.545Z,0.40
2023-04-30T17:50:44.555Z,0.50
2023-04-30T17:53:12.326Z,0.90
2023-04-30T17:55:40.572Z,0.50
2023-04-30T17:58:12.461Z,0.50
2023-04-30T18:00:47.280Z,0.73
2023-04-30T18:05:45.267Z,0.80
2023-04-30T18:08:13.427Z,0.75
2023-04-30T18:10:41.194Z,0.90
2023-04-30T18:13:10.862Z,0.60
2023-04-30T18:15:38.736Z,0.65
2023-04-30T18:18:08.645Z,0.80
2023-04-30T18:20:36.475Z,1.20
2023-04-30T18:23:06.677Z,0.95
2023-04-30T18:25:36.981Z,0.93
2023-04-30T18:28:04.684Z,1.00
2023-04-30T18:30:35.130Z,0.88
2023-04-30T18:35:30.760Z,0.90
2023-04-30T18:37:58.556Z,0.60
2023-04-30T18:40:26.998Z,0.80
2023-04-30T18:42:56.915Z,0.88
2023-04-30T18:45:24.694Z,0.80
2023-04-30T18:47:52.899Z,0.90
2023-04-30T18:50:22.460Z,0.95
2023-04-30T18:52:50.350Z,1.03
2023-04-30T18:55:18.438Z,0.70
2023-04-30T18:57:48.562Z,0.75
2023-04-30T19:00:17.913Z,0.88
2023-04-30T19:02:48.692Z,0.80
2023-04-30T19:05:17.044Z,1.15
2023-04-30T19:07:45.360Z,1.13
2023-04-30T19:10:13.029Z,1.00
2023-04-30T19:12:41.497Z,1.30
2023-04-30T19:15:11.671Z,1.60
2023-04-30T19:17:42.071Z,1.20
2023-04-30T19:20:10.478Z,0.90
2023-04-30T19:22:38.570Z,1.30
2023-04-30T19:25:06.664Z,1.20
2023-04-30T19:27:34.275Z,1.25
2023-04-30T19:30:01.900Z,1.13
2023-04-30T19:32:29.700Z,1.40
2023-04-30T19:34:59.061Z,1.52
2023-04-30T19:37:26.972Z,1.42
2023-04-30T19:39:56.096Z,1.40
2023-04-30T19:42:23.939Z,1.33
2023-04-30T19:44:53.200Z,1.55
2023-04-30T19:47:20.932Z,1.48
2023-04-30T19:49:49.961Z,1.65
2023-04-30T19:52:18.570Z,1.27
2023-04-30T19:54:48.899Z,1.60
2023-04-30T19:57:18.942Z,1.42
2023-04-30T19:59:49.012Z,1.27
2023-04-30T20:02:24.198Z,1.30
2023-04-30T20:04:52.340Z,1.23
2023-04-30T20:07:20.538Z,1.25
2023-04-30T20:09:49.667Z,1.48
2023-04-30T20:12:18.096Z,1.20
2023-04-30T20:14:47.606Z,1.20
2023-04-30T20:17:15.835Z,1.20
2023-04-30T20:19:44.453Z,1.30
2023-04-30T20:22:14.002Z,1.08
2023-04-30T20:24:45.080Z,1.15
2023-04-30T20:27:13.343Z,1.33
2023-04-30T20:29:44.586Z,1.60
2023-04-30T20:32:12.202Z,1.50
2023-04-30T20:34:40.014Z,1.20
2023-04-30T20:37:07.808Z,1.27
2023-04-30T20:39:38.458Z,1.42
2023-04-30T20:42:07.247Z,1.60
2023-04-30T20:44:34.970Z,1.70
2023-04-30T20:47:08.270Z,1.58
2023-04-30T20:49:38.134Z,1.80
2023-04-30T20:52:08.469Z,1.60
2023-04-30T20:54:36.117Z,1.40
2023-04-30T20:57:05.643Z,1.73
2023-04-30T20:59:33.493Z,1.90
2023-04-30T21:02:01.135Z,1.38
2023-04-30T21:04:29.006Z,1.60
2023-04-30T21:06:59.661Z,1.70
2023-04-30T21:09:27.333Z,1.75
2023-04-30T21:11:56.238Z,1.92
2023-04-30T21:14:24.284Z,1.42
2023-04-30T21:16:52.221Z,1.63
2023-04-30T21:19:19.994Z,1.80
2023-04-30T21:21:51.696Z,1.75
2023-04-30T21:24:19.779Z,1.80
2023-04-30T21:26:51.926Z,2.03
2023-04-30T21:29:19.818Z,2.22
2023-04-30T21:31:49.450Z,1.75
2023-04-30T21:34:19.928Z,1.33
2023-04-30T21:36:48.864Z,1.63
2023-04-30T21:39:20.155Z,1.90
2023-04-30T21:41:49.466Z,1.77
2023-04-30T21:44:18.349Z,1.63
2023-04-30T21:46:47.356Z,1.88
2023-04-30T21:49:17.533Z,2.10
2023-04-30T21:51:45.381Z,2.08
2023-04-30T21:54:14.047Z,1.80
2023-04-30T21:56:42.838Z,1.83
2023-04-30T21:59:10.441Z,1.80
2023-04-30T22:01:38.494Z,2.15
2023-04-30T22:04:10.325Z,1.80
2023-04-30T22:06:39.287Z,1.92
2023-04-30T22:09:10.187Z,2.45
2023-04-30T22:11:38.179Z,1.83
2023-04-30T22:14:13.374Z,1.73
2023-04-30T22:16:40.894Z,2.20
2023-04-30T22:19:09.350Z,2.03
2023-04-30T22:21:37.374Z,2.47
2023-04-30T22:24:08.342Z,1.83
2023-04-30T22:26:41.325Z,2.17
2023-04-30T22:29:09.701Z,2.13
2023-04-30T22:31:38.084Z,2.28
2023-04-30T22:34:08.411Z,2.00
2023-04-30T22:36:36.140Z,1.80
2023-04-30T22:39:04.876Z,2.08
2023-04-30T22:41:34.569Z,1.98
2023-04-30T22:44:03.357Z,2.20
2023-04-30T22:46:33.532Z,2.28
2023-04-30T22:49:01.858Z,2.75
2023-04-30T22:51:29.733Z,2.38
2023-04-30T22:53:57.397Z,2.22
2023-04-30T22:56:25.227Z,2.33
2023-04-30T22:58:53.235Z,2.40
2023-04-30T23:01:20.916Z,2.63
2023-04-30T23:03:50.018Z,2.38
2023-04-30T23:06:19.924Z,2.38
2023-04-30T23:08:53.277Z,2.75
2023-04-30T23:11:20.754Z,2.13
2023-04-30T23:13:50.037Z,2.38
2023-04-30T23:16:21.816Z,2.00
2023-04-30T23:18:50.169Z,2.58
2023-04-30T23:21:18.832Z,2.00
2023-04-30T23:23:48.145Z,2.63
2023-04-30T23:26:16.010Z,2.47
2023-04-30T23:28:45.246Z,3.03
2023-04-30T23:31:15.362Z,2.30
2023-04-30T23:33:43.559Z,2.10
2023-04-30T23:36:13.633Z,2.30
2023-04-30T23:38:43.038Z,2.25
2023-04-30T23:41:11.414Z,2.28
2023-04-30T23:43:41.070Z,2.38
2023-04-30T23:48:39.557Z,2.47
2023-04-30T23:51:09.189Z,2.22
2023-04-30T23:53:40.766Z,2.20
2023-04-30T23:56:08.621Z,2.50
2023-04-30T23:58:39.100Z,2.40
